createdAt,value
2018-03-02T00:00:47.861Z,0
2018-03-02T00:02:09.463Z,0
2018-03-02T00:03:31.311Z,0
2018-03-02T00:04:53.182Z,0
2018-03-02T00:06:15.152Z,0
2018-03-02T00:07:37.093Z,0
2018-03-02T00:08:59.098Z,0
2018-03-02T00:10:20.934Z,0
2018-03-02T00:11:43.102Z,0
2018-03-02T00:13:04.693Z,0
2018-03-02T00:14:26.571Z,0
2018-03-02T00:15:48.236Z,0
2018-03-02T00:17:09.829Z,0
2018-03-02T00:18:31.724Z,0
2018-03-02T00:19:53.633Z,0
2018-03-02T00:21:15.008Z,0
2018-03-02T00:22:37.249Z,0
2018-03-02T00:23:59.084Z,0
2018-03-02T00:25:21.206Z,0
2018-03-02T00:26:42.276Z,0
2018-03-02T00:28:04.443Z,0
2018-03-02T00:29:26.310Z,0
2018-03-02T00:30:47.649Z,0
2018-03-02T00:32:09.822Z,0
2018-03-02T00:33:31.215Z,0
2018-03-02T00:34:53.079Z,0
2018-03-02T00:36:15.317Z,0
2018-03-02T00:37:36.973Z,0
2018-03-02T00:38:58.722Z,0
2018-03-02T00:40:19.901Z,0
2018-03-02T00:41:41.347Z,0
2018-03-02T00:43:03.198Z,0
2018-03-02T00:44:25.355Z,0
2018-03-02T00:45:47.274Z,0
2018-03-02T00:47:08.854Z,0
2018-03-02T00:48:30.213Z,0
2018-03-02T00:49:52.533Z,0
2018-03-02T00:51:14.669Z,0
2018-03-02T00:52:36.269Z,0
2018-03-02T00:53:57.866Z,0
2018-03-02T00:55:19.280Z,0
2018-03-02T00:56:41.395Z,0
2018-03-02T00:58:03.342Z,0
2018-03-02T00:59:24.984Z,0
2018-03-02T01:00:46.311Z,0
2018-03-02T01:02:08.174Z,0
2018-03-02T01:03:30.044Z,0
2018-03-02T01:04:51.881Z,0
2018-03-02T01:06:13.932Z,0
2018-03-02T01:07:36.122Z,0
2018-03-02T01:08:58.264Z,0
2018-03-02T01:10:19.860Z,0
2018-03-02T01:11:41.529Z,0
2018-03-02T01:13:02.842Z,0
2018-03-02T01:14:24.174Z,0
2018-03-02T01:15:46.323Z,0
2018-03-02T01:17:07.913Z,0
2018-03-02T01:18:30.044Z,0
2018-03-02T01:19:51.767Z,0
2018-03-02T01:21:13.875Z,0
2018-03-02T01:22:35.604Z,0
2018-03-02T01:23:57.199Z,0
2018-03-02T01:25:18.814Z,0
2018-03-02T01:26:40.154Z,0
2018-03-02T01:28:02.296Z,0
2018-03-02T01:29:23.670Z,0
2018-03-02T01:30:45.283Z,0
2018-03-02T01:32:07.164Z,0
2018-03-02T01:33:29.030Z,0
2018-03-02T01:34:51.255Z,0
2018-03-02T01:36:13.384Z,0
2018-03-02T01:37:35.502Z,0
2018-03-02T01:38:57.175Z,0
2018-03-02T01:40:18.804Z,0
2018-03-02T01:41:40.656Z,0
2018-03-02T01:43:02.260Z,0
2018-03-02T01:44:24.123Z,0
2018-03-02T01:45:45.223Z,0
2018-03-02T01:47:07.068Z,0
2018-03-02T01:48:28.389Z,0
2018-03-02T01:49:50.562Z,0
2018-03-02T01:51:12.251Z,0
2018-03-02T01:52:34.115Z,0
2018-03-02T01:53:55.755Z,0
2018-03-02T01:55:17.349Z,0
2018-03-02T01:56:39.463Z,0
2018-03-02T01:58:00.784Z,0
2018-03-02T01:59:22.907Z,0
2018-03-02T02:00:45.034Z,0
2018-03-02T02:02:07.561Z,0
2018-03-02T02:03:28.385Z,0
2018-03-02T02:04:50.563Z,0
2018-03-02T02:06:12.419Z,0
2018-03-02T02:07:33.754Z,0
2018-03-02T02:08:55.714Z,0
2018-03-02T02:10:17.688Z,0
2018-03-02T02:11:39.285Z,0
2018-03-02T02:13:01.126Z,0
2018-03-02T02:14:22.985Z,0
2018-03-02T02:15:44.617Z,0
2018-03-02T02:17:06.198Z,0
2018-03-02T02:18:27.791Z,0
2018-03-02T02:19:49.123Z,0
2018-03-02T02:21:10.729Z,0
2018-03-02T02:22:32.590Z,0
2018-03-02T02:23:54.712Z,0
2018-03-02T02:25:16.564Z,0
2018-03-02T02:26:38.394Z,0
2018-03-02T02:28:00.373Z,0
2018-03-02T02:29:21.708Z,0
2018-03-02T02:30:43.645Z,0
2018-03-02T02:32:05.804Z,0
2018-03-02T02:33:27.159Z,0
2018-03-02T02:34:48.354Z,0
2018-03-02T02:36:09.742Z,0
2018-03-02T02:37:31.392Z,0
2018-03-02T02:38:52.989Z,0
2018-03-02T02:40:15.168Z,0
2018-03-02T02:41:37.170Z,0
2018-03-02T02:42:59.327Z,0
2018-03-02T02:44:20.414Z,0
2018-03-02T02:45:42.019Z,0
2018-03-02T02:47:03.620Z,0
2018-03-02T02:48:24.955Z,0
2018-03-02T02:49:47.104Z,0
2018-03-02T02:51:09.473Z,0
2018-03-02T02:52:30.564Z,0
2018-03-02T02:53:52.234Z,0
2018-03-02T02:55:14.100Z,0
2018-03-02T02:56:36.331Z,0
2018-03-02T02:57:58.507Z,0
2018-03-02T02:59:20.094Z,0
2018-03-02T03:00:41.947Z,0
2018-03-02T03:02:03.564Z,0
2018-03-02T03:03:25.424Z,0
2018-03-02T03:04:47.015Z,0
2018-03-02T03:06:09.145Z,0
2018-03-02T03:07:30.472Z,0
2018-03-02T03:08:52.106Z,0
2018-03-02T03:10:13.707Z,0
2018-03-02T03:11:35.414Z,0
2018-03-02T03:12:57.293Z,0
2018-03-02T03:14:18.998Z,0
2018-03-02T03:15:40.227Z,0
2018-03-02T03:17:01.810Z,0
2018-03-02T03:18:23.553Z,0
2018-03-02T03:19:44.886Z,0
2018-03-02T03:21:06.228Z,0
2018-03-02T03:22:27.860Z,0
2018-03-02T03:23:49.480Z,0
2018-03-02T03:25:11.404Z,0
2018-03-02T03:26:33.364Z,0
2018-03-02T03:27:54.783Z,0
2018-03-02T03:29:15.695Z,0
2018-03-02T03:30:37.402Z,0
2018-03-02T03:31:59.344Z,0
2018-03-02T03:33:21.394Z,0
2018-03-02T03:34:43.029Z,0
2018-03-02T03:36:04.374Z,0
2018-03-02T03:37:25.721Z,0
2018-03-02T03:38:47.047Z,0
2018-03-02T03:40:08.647Z,0
2018-03-02T03:41:30.244Z,0
2018-03-02T03:42:51.852Z,0
2018-03-02T03:44:13.763Z,0
2018-03-02T03:45:35.368Z,0
2018-03-02T03:46:57.225Z,0
2018-03-02T03:48:19.354Z,0
2018-03-02T03:49:40.447Z,0
2018-03-02T03:51:02.283Z,0
2018-03-02T03:52:23.614Z,0
2018-03-02T03:53:45.515Z,0
2018-03-02T03:55:07.377Z,0
2018-03-02T03:56:29.503Z,0
2018-03-02T03:57:50.826Z,0
2018-03-02T03:59:12.416Z,0
2018-03-02T04:00:34.594Z,0
2018-03-02T04:01:55.765Z,0
2018-03-02T04:03:17.724Z,0
2018-03-02T04:04:39.345Z,0
2018-03-02T04:06:01.222Z,0
2018-03-02T04:07:22.826Z,0
2018-03-02T04:08:44.552Z,0
2018-03-02T04:10:06.166Z,0
2018-03-02T04:11:27.752Z,0
2018-03-02T04:12:49.345Z,0
2018-03-02T04:14:11.460Z,0
2018-03-02T04:15:33.329Z,0
2018-03-02T04:16:55.555Z,0
2018-03-02T04:18:17.355Z,0
2018-03-02T04:19:39.206Z,0
2018-03-02T04:21:01.457Z,0
2018-03-02T04:22:23.585Z,0
2018-03-02T04:23:45.161Z,0
2018-03-02T04:25:06.788Z,0
2018-03-02T04:26:28.644Z,0
2018-03-02T04:27:50.494Z,0
2018-03-02T04:29:12.356Z,0
2018-03-02T04:30:34.524Z,0
2018-03-02T04:31:56.710Z,0
2018-03-02T04:33:18.850Z,0
2018-03-02T04:34:40.442Z,0
2018-03-02T04:36:02.044Z,0
2018-03-02T04:37:23.888Z,0
2018-03-02T04:38:45.500Z,0
2018-03-02T04:40:07.124Z,0
2018-03-02T04:41:28.995Z,0
2018-03-02T04:42:50.326Z,0
2018-03-02T04:44:11.664Z,0
2018-03-02T04:45:33.505Z,0
2018-03-02T04:46:55.551Z,0
2018-03-02T04:48:17.498Z,0
2018-03-02T04:49:39.135Z,0
2018-03-02T04:51:01.028Z,0
2018-03-02T04:52:22.115Z,0
2018-03-02T04:53:44.231Z,0
2018-03-02T04:55:05.574Z,0
2018-03-02T04:56:27.155Z,0
2018-03-02T04:57:48.965Z,0
2018-03-02T04:59:10.450Z,0
2018-03-02T05:00:31.774Z,0
2018-03-02T05:01:53.354Z,0
2018-03-02T05:03:14.798Z,0
2018-03-02T05:04:36.775Z,0
2018-03-02T05:05:58.754Z,0
2018-03-02T05:07:20.461Z,0
2018-03-02T05:08:41.814Z,0
2018-03-02T05:10:03.680Z,0
2018-03-02T05:11:25.535Z,0
2018-03-02T05:12:46.855Z,0
2018-03-02T05:14:09.087Z,0
2018-03-02T05:15:30.935Z,0
2018-03-02T05:16:52.534Z,0
2018-03-02T05:18:14.404Z,0
2018-03-02T05:19:36.286Z,0
2018-03-02T05:20:58.414Z,0
2018-03-02T05:22:20.569Z,0
2018-03-02T05:23:42.451Z,0
2018-03-02T05:25:04.579Z,0
2018-03-02T05:26:26.154Z,0
2018-03-02T05:27:47.985Z,0
2018-03-02T05:29:10.125Z,0
2018-03-02T05:30:32.033Z,0
2018-03-02T05:31:53.645Z,0
2018-03-02T05:33:15.794Z,4
2018-03-02T05:34:37.389Z,0
2018-03-02T05:35:59.574Z,4
2018-03-02T05:37:20.645Z,4
2018-03-02T05:38:42.249Z,4
2018-03-02T05:40:03.878Z,4
2018-03-02T05:41:25.773Z,4
2018-03-02T05:42:47.677Z,4
2018-03-02T05:44:09.801Z,8
2018-03-02T05:45:31.482Z,12
2018-03-02T05:46:53.075Z,16
2018-03-02T05:48:15.270Z,16
2018-03-02T05:49:37.216Z,24
2018-03-02T05:50:59.164Z,28
2018-03-02T05:52:21.274Z,36
2018-03-02T05:53:42.884Z,40
2018-03-02T05:55:04.893Z,52
2018-03-02T05:56:26.741Z,64
2018-03-02T05:57:48.334Z,76
2018-03-02T05:59:10.202Z,88
2018-03-02T06:00:32.082Z,120
2018-03-02T06:01:54.068Z,140
2018-03-02T06:03:16.262Z,148
2018-03-02T06:04:37.873Z,168
2018-03-02T06:05:59.732Z,196
2018-03-02T06:07:22.161Z,224
2018-03-02T06:08:44.034Z,256
2018-03-02T06:10:06.167Z,292
2018-03-02T06:11:28.033Z,328
2018-03-02T06:12:49.632Z,368
2018-03-02T06:14:11.229Z,412
2018-03-02T06:15:32.812Z,456
2018-03-02T06:16:54.671Z,504
2018-03-02T06:18:16.026Z,556
2018-03-02T06:19:37.625Z,612
2018-03-02T06:20:59.223Z,668
2018-03-02T06:22:20.953Z,728
2018-03-02T06:23:42.639Z,788
2018-03-02T06:25:04.507Z,860
2018-03-02T06:26:26.143Z,928
2018-03-02T06:27:48.043Z,1000
2018-03-02T06:29:09.913Z,1072
2018-03-02T06:30:31.796Z,1152
2018-03-02T06:31:53.657Z,1232
2018-03-02T06:33:15.800Z,1312
2018-03-02T06:34:37.437Z,1392
2018-03-02T06:35:59.562Z,1480
2018-03-02T06:37:21.468Z,1564
2018-03-02T06:38:42.286Z,1648
2018-03-02T06:40:03.638Z,1728
2018-03-02T06:41:25.507Z,1816
2018-03-02T06:42:47.605Z,1908
2018-03-02T06:44:09.267Z,1992
2018-03-02T06:45:30.353Z,2076
2018-03-02T06:46:52.246Z,2168
2018-03-02T06:48:14.104Z,2280
2018-03-02T06:49:35.963Z,2412
2018-03-02T06:50:57.314Z,2540
2018-03-02T06:52:19.265Z,2768
2018-03-02T06:53:41.399Z,3084
2018-03-02T06:55:03.284Z,3204
2018-03-02T06:56:25.440Z,3288
2018-03-02T06:57:47.574Z,3288
2018-03-02T06:59:09.454Z,3592
2018-03-02T07:00:31.050Z,3604
2018-03-02T07:01:53.196Z,3964
2018-03-02T07:03:15.153Z,4136
2018-03-02T07:04:37.292Z,4036
2018-03-02T07:05:58.383Z,4212
2018-03-02T07:07:20.019Z,4396
2018-03-02T07:08:41.105Z,4580
2018-03-02T07:10:03.072Z,4580
2018-03-02T07:11:24.960Z,4616
2018-03-02T07:12:46.620Z,4652
2018-03-02T07:14:08.244Z,4888
2018-03-02T07:15:30.169Z,4968
2018-03-02T07:16:51.297Z,5124
2018-03-02T07:18:13.413Z,5136
2018-03-02T07:19:35.536Z,5192
2018-03-02T07:20:57.605Z,5220
2018-03-02T07:22:19.246Z,5216
2018-03-02T07:23:41.188Z,5220
2018-03-02T07:25:02.774Z,5228
2018-03-02T07:26:24.628Z,5232
2018-03-02T07:27:46.267Z,5220
2018-03-02T07:29:07.862Z,5208
2018-03-02T07:30:29.764Z,5168
2018-03-02T07:31:51.411Z,5152
2018-03-02T07:33:13.345Z,5088
2018-03-02T07:34:35.335Z,4968
2018-03-02T07:35:57.431Z,4720
2018-03-02T07:37:19.311Z,4672
2018-03-02T07:38:40.406Z,4700
2018-03-02T07:40:01.994Z,4732
2018-03-02T07:41:23.976Z,4764
2018-03-02T07:42:45.674Z,4796
2018-03-02T07:44:07.280Z,4828
2018-03-02T07:45:28.975Z,4864
2018-03-02T07:46:51.122Z,4908
2018-03-02T07:48:12.183Z,4908
2018-03-02T07:49:33.539Z,4932
2018-03-02T07:50:55.124Z,4980
2018-03-02T07:52:16.452Z,4976
2018-03-02T07:53:38.308Z,5020
2018-03-02T07:54:59.922Z,5040
2018-03-02T07:56:21.515Z,5068
2018-03-02T07:57:43.130Z,5088
2018-03-02T07:59:04.730Z,5116
2018-03-02T08:00:26.604Z,5132
2018-03-02T08:01:48.206Z,5196
2018-03-02T08:03:10.405Z,5200
2018-03-02T08:04:32.209Z,5248
2018-03-02T08:05:54.159Z,5296
2018-03-02T08:07:16.288Z,5340
2018-03-02T08:08:38.185Z,5320
2018-03-02T08:10:00.456Z,5368
2018-03-02T08:11:22.320Z,5372
2018-03-02T08:12:43.915Z,5424
2018-03-02T08:14:05.809Z,5452
2018-03-02T08:15:27.707Z,5500
2018-03-02T08:16:49.383Z,5540
2018-03-02T08:18:10.566Z,5552
2018-03-02T08:19:32.163Z,5524
2018-03-02T08:20:53.995Z,5516
2018-03-02T08:22:15.656Z,5520
2018-03-02T08:23:37.516Z,5564
2018-03-02T08:24:59.132Z,5588
2018-03-02T08:26:21.069Z,5572
2018-03-02T08:27:43.031Z,5624
2018-03-02T08:29:05.205Z,5588
2018-03-02T08:30:27.063Z,5640
2018-03-02T08:31:48.465Z,5612
2018-03-02T08:33:10.766Z,5616
2018-03-02T08:34:32.823Z,5620
2018-03-02T08:35:54.203Z,5620
2018-03-02T08:37:16.322Z,5596
2018-03-02T08:38:37.951Z,5604
2018-03-02T08:39:59.832Z,5604
2018-03-02T08:41:21.420Z,5596
2018-03-02T08:42:43.572Z,5600
2018-03-02T08:44:05.175Z,5552
2018-03-02T08:45:26.768Z,5608
2018-03-02T08:46:48.450Z,5592
2018-03-02T08:48:10.178Z,5632
2018-03-02T08:49:31.763Z,5656
2018-03-02T08:50:53.354Z,5552
2018-03-02T08:52:15.197Z,5620
2018-03-02T08:53:36.910Z,5640
2018-03-02T08:54:58.515Z,5620
2018-03-02T08:56:20.458Z,5592
2018-03-02T08:57:42.335Z,5616
2018-03-02T08:59:04.285Z,5596
2018-03-02T09:00:25.949Z,5592
2018-03-02T09:01:48.074Z,5564
2018-03-02T09:03:09.765Z,5564
2018-03-02T09:04:31.633Z,5592
2018-03-02T09:05:53.265Z,5604
2018-03-02T09:07:15.372Z,5572
2018-03-02T09:08:37.386Z,5552
2018-03-02T09:09:58.997Z,5552
2018-03-02T09:11:20.587Z,5508
2018-03-02T09:12:42.763Z,5548
2018-03-02T09:14:04.495Z,5572
2018-03-02T09:15:26.148Z,5504
2018-03-02T09:16:48.303Z,5548
2018-03-02T09:18:10.682Z,5532
2018-03-02T09:19:32.565Z,5520
2018-03-02T09:20:54.297Z,5528
2018-03-02T09:22:16.221Z,5496
2018-03-02T09:23:38.429Z,5480
2018-03-02T09:24:59.906Z,5432
2018-03-02T09:26:21.778Z,5400
2018-03-02T09:27:43.434Z,5384
2018-03-02T09:29:05.032Z,5384
2018-03-02T09:30:27.165Z,5320
2018-03-02T09:31:49.356Z,5344
2018-03-02T09:33:10.986Z,5296
2018-03-02T09:34:33.169Z,5300
2018-03-02T09:35:54.784Z,5172
2018-03-02T09:37:16.434Z,5168
2018-03-02T09:38:37.766Z,5160
2018-03-02T09:39:59.701Z,5080
2018-03-02T09:41:21.835Z,5020
2018-03-02T09:42:43.853Z,5000
2018-03-02T09:44:05.767Z,5008
2018-03-02T09:45:27.720Z,4996
2018-03-02T09:46:49.864Z,4876
2018-03-02T09:48:11.732Z,4804
2018-03-02T09:49:33.455Z,4752
2018-03-02T09:50:54.876Z,4768
2018-03-02T09:52:16.743Z,4744
2018-03-02T09:53:38.856Z,4780
2018-03-02T09:55:00.352Z,4864
2018-03-02T09:56:21.175Z,4896
2018-03-02T09:57:42.802Z,4864
2018-03-02T09:59:04.765Z,4800
2018-03-02T10:00:26.697Z,4852
2018-03-02T10:01:48.601Z,4984
2018-03-02T10:03:10.773Z,5016
2018-03-02T10:04:32.431Z,5060
2018-03-02T10:05:54.496Z,5116
2018-03-02T10:07:16.449Z,5136
2018-03-02T10:08:38.717Z,5064
2018-03-02T10:10:00.099Z,4996
2018-03-02T10:11:21.702Z,4948
2018-03-02T10:12:43.572Z,4920
2018-03-02T10:14:05.461Z,4904
2018-03-02T10:15:27.333Z,4920
2018-03-02T10:16:48.937Z,4788
2018-03-02T10:18:11.230Z,4764
2018-03-02T10:19:32.933Z,4824
2018-03-02T10:20:54.594Z,4832
2018-03-02T10:22:16.526Z,4800
2018-03-02T10:23:38.792Z,4756
2018-03-02T10:25:00.689Z,4696
2018-03-02T10:26:22.065Z,4752
2018-03-02T10:27:43.994Z,4812
2018-03-02T10:29:05.587Z,4820
2018-03-02T10:30:27.476Z,4880
2018-03-02T10:31:49.441Z,4840
2018-03-02T10:33:10.823Z,4832
2018-03-02T10:34:31.893Z,4864
2018-03-02T10:35:53.532Z,4924
2018-03-02T10:37:15.786Z,4940
2018-03-02T10:38:37.914Z,4968
2018-03-02T10:39:59.786Z,4956
2018-03-02T10:41:21.385Z,4988
2018-03-02T10:42:43.014Z,4992
2018-03-02T10:44:04.672Z,4972
2018-03-02T10:45:26.533Z,4772
2018-03-02T10:46:48.673Z,4800
2018-03-02T10:48:10.042Z,4904
2018-03-02T10:49:31.960Z,4868
2018-03-02T10:50:53.902Z,4984
2018-03-02T10:52:15.783Z,5012
2018-03-02T10:53:37.367Z,4964
2018-03-02T10:54:58.725Z,4956
2018-03-02T10:56:20.773Z,4992
2018-03-02T10:57:42.634Z,4960
2018-03-02T10:59:04.513Z,4928
2018-03-02T11:00:26.387Z,4884
2018-03-02T11:01:48.362Z,4880
2018-03-02T11:03:10.056Z,4892
2018-03-02T11:04:31.926Z,4908
2018-03-02T11:05:53.555Z,4924
2018-03-02T11:07:14.901Z,4884
2018-03-02T11:08:36.295Z,4820
2018-03-02T11:09:57.360Z,4784
2018-03-02T11:11:18.794Z,4816
2018-03-02T11:12:40.954Z,4868
2018-03-02T11:14:02.855Z,4952
2018-03-02T11:15:25.065Z,4948
2018-03-02T11:16:46.687Z,4948
2018-03-02T11:18:08.313Z,4928
2018-03-02T11:19:29.956Z,4928
2018-03-02T11:20:51.871Z,4956
2018-03-02T11:22:13.813Z,4956
2018-03-02T11:23:35.157Z,4948
2018-03-02T11:24:57.333Z,4956
2018-03-02T11:26:18.976Z,4972
2018-03-02T11:27:41.104Z,4980
2018-03-02T11:29:02.734Z,4952
2018-03-02T11:30:24.886Z,4964
2018-03-02T11:31:46.925Z,4964
2018-03-02T11:33:08.790Z,4968
2018-03-02T11:34:30.399Z,4924
2018-03-02T11:35:52.581Z,4884
2018-03-02T11:37:14.463Z,4828
2018-03-02T11:38:36.444Z,4820
2018-03-02T11:39:58.577Z,4852
2018-03-02T11:41:20.163Z,4932
2018-03-02T11:42:41.765Z,4984
2018-03-02T11:44:03.647Z,4996
2018-03-02T11:45:25.687Z,4984
2018-03-02T11:46:47.863Z,4984
2018-03-02T11:48:09.876Z,4964
2018-03-02T11:49:32.173Z,4948
2018-03-02T11:50:54.097Z,4936
2018-03-02T11:52:16.144Z,4916
2018-03-02T11:53:38.124Z,4876
2018-03-02T11:54:59.805Z,4860
2018-03-02T11:56:22.092Z,4820
2018-03-02T11:57:43.708Z,4804
2018-03-02T11:59:05.717Z,4788
2018-03-02T12:00:27.925Z,4760
2018-03-02T12:01:49.825Z,4740
2018-03-02T12:03:11.702Z,4720
2018-03-02T12:04:33.616Z,4712
2018-03-02T12:05:55.326Z,4700
2018-03-02T12:07:16.769Z,4676
2018-03-02T12:08:38.634Z,4676
2018-03-02T12:10:32.664Z,4644
2018-03-02T12:11:54.884Z,4636
2018-03-02T12:13:16.775Z,4624
2018-03-02T12:14:38.670Z,4604
2018-03-02T12:16:00.606Z,4604
2018-03-02T12:17:22.277Z,4592
2018-03-02T12:18:44.405Z,4588
2018-03-02T12:20:06.330Z,4588
2018-03-02T12:21:28.203Z,4580
2018-03-02T12:22:50.190Z,4588
2018-03-02T12:24:11.573Z,4584
2018-03-02T12:25:33.449Z,4596
2018-03-02T12:26:55.483Z,4588
2018-03-02T12:28:17.353Z,4600
2018-03-02T12:29:38.746Z,4596
2018-03-02T12:31:00.945Z,4596
2018-03-02T12:32:22.565Z,4600
2018-03-02T12:33:44.594Z,4576
2018-03-02T12:35:06.600Z,4564
2018-03-02T12:36:28.206Z,4580
2018-03-02T12:37:50.164Z,4576
2018-03-02T12:39:44.253Z,4556
2018-03-02T12:41:06.118Z,4544
2018-03-02T12:42:28.293Z,4544
2018-03-02T12:43:49.925Z,4544
2018-03-02T12:45:11.857Z,4532
2018-03-02T12:46:32.941Z,4520
2018-03-02T12:47:55.277Z,4500
2018-03-02T12:49:17.026Z,4488
2018-03-02T12:50:38.669Z,4472
2018-03-02T12:52:00.565Z,4468
2018-03-02T12:53:21.541Z,4460
2018-03-02T12:54:44.153Z,4468
2018-03-02T12:56:06.027Z,4472
2018-03-02T12:57:27.647Z,4488
2018-03-02T12:58:49.518Z,4488
2018-03-02T13:00:11.177Z,4504
2018-03-02T13:01:32.284Z,4500
2018-03-02T13:02:54.146Z,4504
2018-03-02T13:04:16.194Z,4512
2018-03-02T13:05:38.336Z,4508
2018-03-02T13:07:00.226Z,4504
2018-03-02T13:08:22.145Z,4496
2018-03-02T13:09:44.418Z,4500
2018-03-02T13:11:06.302Z,4500
2018-03-02T13:12:28.265Z,4500
2018-03-02T13:13:50.260Z,4488
2018-03-02T13:15:11.604Z,4480
2018-03-02T13:16:33.746Z,4468
2018-03-02T13:17:55.386Z,4460
2018-03-02T13:19:17.036Z,4464
2018-03-02T13:20:39.292Z,4456
2018-03-02T13:22:01.434Z,4468
2018-03-02T13:23:23.043Z,4468
2018-03-02T13:24:44.976Z,4456
2018-03-02T13:26:07.118Z,4448
2018-03-02T13:27:29.271Z,4440
2018-03-02T13:28:51.184Z,4436
2018-03-02T13:30:13.160Z,4444
2018-03-02T13:31:35.021Z,4440
2018-03-02T13:32:56.913Z,4448
2018-03-02T13:34:18.806Z,4448
2018-03-02T13:35:40.971Z,4440
2018-03-02T13:37:02.864Z,4436
2018-03-02T13:38:24.500Z,4428
2018-03-02T13:39:46.627Z,4416
2018-03-02T13:41:08.368Z,4392
2018-03-02T13:42:29.997Z,4388
2018-03-02T13:43:51.648Z,4388
2018-03-02T13:45:13.293Z,4372
2018-03-02T13:46:34.632Z,4380
2018-03-02T13:47:56.762Z,4372
2018-03-02T13:49:18.458Z,4372
2018-03-02T13:50:39.817Z,4388
2018-03-02T13:52:01.704Z,4396
2018-03-02T13:53:23.413Z,4400
2018-03-02T13:54:45.315Z,4404
2018-03-02T13:56:06.651Z,4400
2018-03-02T13:57:28.834Z,4400
2018-03-02T13:58:50.766Z,4384
2018-03-02T14:00:12.428Z,4344
2018-03-02T14:01:34.760Z,4320
2018-03-02T14:02:56.633Z,4300
2018-03-02T14:04:18.501Z,4272
2018-03-02T14:05:40.644Z,4264
2018-03-02T14:07:02.782Z,4248
2018-03-02T14:08:24.940Z,4236
2018-03-02T14:09:46.897Z,4228
2018-03-02T14:11:08.860Z,4208
2018-03-02T14:12:30.789Z,4204
2018-03-02T14:13:52.943Z,4208
2018-03-02T14:15:15.174Z,4204
2018-03-02T14:16:37.339Z,4184
2018-03-02T14:17:59.213Z,4172
2018-03-02T14:19:21.191Z,4168
2018-03-02T14:20:43.112Z,4164
2018-03-02T14:22:05.013Z,4160
2018-03-02T14:23:27.168Z,4148
2018-03-02T14:24:49.348Z,4136
2018-03-02T14:26:11.492Z,4116
2018-03-02T14:27:33.648Z,4104
2018-03-02T14:29:27.400Z,4092
2018-03-02T14:30:49.308Z,4076
2018-03-02T14:32:10.951Z,4068
2018-03-02T14:33:32.936Z,4048
2018-03-02T14:34:54.860Z,4020
2018-03-02T14:36:16.760Z,4000
2018-03-02T14:37:38.397Z,3988
2018-03-02T14:39:00.291Z,3976
2018-03-02T14:40:22.440Z,3976
2018-03-02T14:41:44.574Z,3964
2018-03-02T14:43:06.481Z,3944
2018-03-02T14:44:28.095Z,3924
2018-03-02T14:45:49.980Z,3904
2018-03-02T14:47:11.622Z,3896
2018-03-02T14:48:33.301Z,3880
2018-03-02T14:49:54.721Z,3880
2018-03-02T14:51:16.705Z,3860
2018-03-02T14:52:38.605Z,3848
2018-03-02T14:54:00.966Z,3824
2018-03-02T14:55:22.603Z,3804
2018-03-02T14:56:44.761Z,3784
2018-03-02T14:58:06.946Z,3760
2018-03-02T14:59:28.902Z,3736
2018-03-02T15:00:50.600Z,3720
2018-03-02T15:02:12.476Z,3700
2018-03-02T15:03:34.129Z,3688
2018-03-02T15:04:55.960Z,3676
2018-03-02T15:06:17.850Z,3656
2018-03-02T15:07:39.822Z,3632
2018-03-02T15:09:02.128Z,3612
2018-03-02T15:10:24.037Z,3584
2018-03-02T15:11:46.273Z,3568
2018-03-02T15:13:08.494Z,3556
2018-03-02T15:14:30.671Z,3536
2018-03-02T15:15:52.847Z,3512
2018-03-02T15:17:15.171Z,3500
2018-03-02T15:18:37.304Z,3480
2018-03-02T15:19:59.512Z,3452
2018-03-02T15:21:21.717Z,3432
2018-03-02T15:22:43.893Z,3412
2018-03-02T15:24:06.053Z,3388
2018-03-02T15:25:27.701Z,3368
2018-03-02T15:26:49.343Z,3340
2018-03-02T15:28:11.296Z,3316
2018-03-02T15:29:33.530Z,3296
2018-03-02T15:30:55.423Z,3268
2018-03-02T15:32:17.454Z,3244
2018-03-02T15:33:39.198Z,3220
2018-03-02T15:35:01.198Z,3192
2018-03-02T15:36:22.797Z,3164
2018-03-02T15:37:44.699Z,3132
2018-03-02T15:39:06.313Z,3100
2018-03-02T15:40:28.192Z,3072
2018-03-02T15:41:50.110Z,3036
2018-03-02T15:43:12.120Z,3004
2018-03-02T15:44:34.252Z,2976
2018-03-02T15:45:56.422Z,2948
2018-03-02T15:47:18.600Z,2916
2018-03-02T15:48:40.491Z,2888
2018-03-02T15:50:02.346Z,2856
2018-03-02T15:51:24.509Z,2820
2018-03-02T15:52:46.675Z,2788
2018-03-02T15:54:08.291Z,2752
2018-03-02T15:55:30.440Z,2720
2018-03-02T15:56:52.339Z,2688
2018-03-02T15:58:13.967Z,2652
2018-03-02T15:59:35.713Z,2608
2018-03-02T16:00:57.351Z,2564
2018-03-02T16:02:19.546Z,2524
2018-03-02T16:03:41.261Z,2488
2018-03-02T16:05:03.441Z,2448
2018-03-02T16:06:25.036Z,2408
2018-03-02T16:07:47.223Z,2360
2018-03-02T16:09:09.390Z,2320
2018-03-02T16:10:31.563Z,2280
2018-03-02T16:11:53.454Z,2232
2018-03-02T16:13:15.460Z,2188
2018-03-02T16:14:37.669Z,2144
2018-03-02T16:15:59.830Z,2092
2018-03-02T16:17:21.439Z,2048
2018-03-02T16:18:43.581Z,1996
2018-03-02T16:20:05.512Z,1944
2018-03-02T16:21:27.433Z,1892
2018-03-02T16:22:49.393Z,1840
2018-03-02T16:24:11.412Z,1788
2018-03-02T16:25:33.658Z,1732
2018-03-02T16:26:55.538Z,1692
2018-03-02T16:28:17.469Z,1636
2018-03-02T16:29:39.646Z,1580
2018-03-02T16:31:01.664Z,1524
2018-03-02T16:32:23.276Z,1468
2018-03-02T16:33:45.426Z,1412
2018-03-02T16:35:07.334Z,1352
2018-03-02T16:36:29.516Z,1288
2018-03-02T16:37:51.150Z,1228
2018-03-02T16:39:13.032Z,1156
2018-03-02T16:40:35.190Z,1092
2018-03-02T16:41:57.110Z,1036
2018-03-02T16:43:18.988Z,972
2018-03-02T16:44:40.640Z,900
2018-03-02T16:46:02.632Z,832
2018-03-02T16:47:24.599Z,768
2018-03-02T16:48:47.017Z,704
2018-03-02T16:50:08.778Z,640
2018-03-02T16:51:29.940Z,580
2018-03-02T16:52:51.872Z,528
2018-03-02T16:54:13.833Z,472
2018-03-02T16:55:35.757Z,424
2018-03-02T16:56:57.121Z,384
2018-03-02T16:58:18.801Z,340
2018-03-02T16:59:40.789Z,304
2018-03-02T17:01:02.433Z,272
2018-03-02T17:02:24.309Z,240
2018-03-02T17:03:45.695Z,212
2018-03-02T17:05:07.398Z,188
2018-03-02T17:06:28.870Z,164
2018-03-02T17:07:51.180Z,144
2018-03-02T17:09:13.088Z,124
2018-03-02T17:10:34.660Z,108
2018-03-02T17:11:56.837Z,96
2018-03-02T17:13:18.730Z,84
2018-03-02T17:14:40.364Z,72
2018-03-02T17:16:01.734Z,64
2018-03-02T17:17:23.639Z,52
2018-03-02T17:18:45.408Z,44
2018-03-02T17:20:07.275Z,40
2018-03-02T17:21:29.438Z,32
2018-03-02T17:22:51.621Z,28
2018-03-02T17:24:13.527Z,28
2018-03-02T17:25:35.449Z,24
2018-03-02T17:26:57.564Z,20
2018-03-02T17:28:19.489Z,20
2018-03-02T17:29:41.171Z,20
2018-03-02T17:31:02.775Z,20
2018-03-02T17:32:24.200Z,16
2018-03-02T17:33:46.356Z,4
2018-03-02T17:35:08.381Z,4
2018-03-02T17:36:30.561Z,0
2018-03-02T17:37:52.225Z,0
2018-03-02T17:39:14.432Z,0
2018-03-02T17:40:36.344Z,0
2018-03-02T17:41:58.691Z,0
2018-03-02T17:43:20.898Z,0
2018-03-02T17:44:42.778Z,0
2018-03-02T17:46:04.800Z,0
2018-03-02T17:47:26.738Z,0
2018-03-02T17:48:48.628Z,0
2018-03-02T17:50:10.591Z,0
2018-03-02T17:51:32.463Z,0
2018-03-02T17:52:54.502Z,0
2018-03-02T17:54:16.673Z,0
2018-03-02T17:55:38.319Z,0
2018-03-02T17:57:00.350Z,0
2018-03-02T17:58:22.018Z,0
2018-03-02T17:59:43.920Z,0
2018-03-02T18:01:05.831Z,0
2018-03-02T18:02:28.136Z,0
2018-03-02T18:03:50.320Z,0
2018-03-02T18:05:12.482Z,0
2018-03-02T18:06:34.878Z,0
2018-03-02T18:07:56.502Z,0
2018-03-02T18:09:49.721Z,0
2018-03-02T18:11:12.070Z,0
2018-03-02T18:12:34.242Z,0
2018-03-02T18:13:55.873Z,0
2018-03-02T18:15:18.043Z,0
2018-03-02T18:16:39.960Z,0
2018-03-02T18:18:01.978Z,0
2018-03-02T18:19:23.870Z,0
2018-03-02T18:20:45.757Z,0
2018-03-02T18:22:07.925Z,0
2018-03-02T18:23:30.100Z,0
2018-03-02T18:24:52.078Z,0
2018-03-02T18:26:14.020Z,0
2018-03-02T18:27:36.197Z,0
2018-03-02T18:28:58.105Z,0
2018-03-02T18:30:20.426Z,0
2018-03-02T18:31:42.490Z,0
2018-03-02T18:33:04.696Z,0
2018-03-02T18:34:26.910Z,0
2018-03-02T18:35:48.653Z,0
2018-03-02T18:37:11.260Z,0
2018-03-02T18:38:33.182Z,0
2018-03-02T18:39:55.387Z,0
2018-03-02T18:41:17.561Z,0
2018-03-02T18:42:38.952Z,0
2018-03-02T18:44:00.871Z,0
2018-03-02T18:45:22.901Z,0
2018-03-02T18:46:44.566Z,0
2018-03-02T18:48:06.553Z,0
2018-03-02T18:49:28.485Z,0
2018-03-02T18:50:50.815Z,0
2018-03-02T18:52:12.742Z,0
2018-03-02T18:53:34.461Z,0
2018-03-02T18:54:56.367Z,0
2018-03-02T18:56:18.641Z,0
2018-03-02T18:57:40.689Z,0
2018-03-02T18:59:02.667Z,0